Time;durP1;ratioP1;P1;durP2;ratioP2;P2;SDS_P1;SDS_P2;PMS_P1;PMS_P2;Temp;Humidity;BMP_temperature;BMP_pressure;BME280_temperature;BME280_humidity;BME280_pressure;Samples;Min_cycle;Max_cycle;Signal;HPM_P1;HPM_P2
2024/04/03 00:00:54;;;;;;;0.30;0.30;;;;;;;11.83;51.32;98783.88;105692;1254;60540;-70
2024/04/03 00:03:21;;;;;;;0.40;0.30;;;;;;;11.83;51.38;98789.40;105609;1257;65181;-66
2024/04/03 00:05:48;;;;;;;0.70;0.40;;;;;;;11.80;51.46;98798.11;105844;1256;60445;-65
2024/04/03 00:08:15;;;;;;;0.60;0.40;;;;;;;11.77;51.53;98796.81;105613;1253;64025;-67
2024/04/03 00:10:42;;;;;;;0.50;0.30;;;;;;;11.76;51.51;98800.28;105897;1252;60434;-67
2024/04/03 00:13:09;;;;;;;0.80;0.40;;;;;;;11.76;51.34;98797.48;105782;1251;60546;-65
2024/04/03 00:15:37;;;;;;;0.30;0.30;;;;;;;11.76;51.35;98795.65;105641;1255;65258;-68
2024/04/03 00:18:05;;;;;;;0.50;0.20;;;;;;;11.78;51.38;98793.09;105551;1254;60350;-66
2024/04/03 00:20:32;;;;;;;0.60;0.40;;;;;;;11.79;51.41;98796.14;105705;1253;63820;-66
2024/04/03 00:22:59;;;;;;;1.50;0.40;;;;;;;11.81;51.37;98795.95;105851;1253;60441;-66
2024/04/03 00:25:25;;;;;;;2.80;0.40;;;;;;;11.81;51.31;98795.36;105617;1253;60466;-67
2024/04/03 00:27:52;;;;;;;0.70;0.30;;;;;;;11.84;51.35;98797.73;105780;1256;65377;-67
2024/04/03 00:30:19;;;;;;;1.70;0.40;;;;;;;11.84;51.13;98801.92;105715;1256;60522;-67
2024/04/03 00:32:47;;;;;;;0.40;0.20;;;;;;;11.85;51.19;98807.84;106033;1256;63837;-67
2024/04/03 00:35:14;;;;;;;1.80;0.90;;;;;;;11.85;51.21;98814.16;105636;1253;60423;-67
2024/04/03 00:37:40;;;;;;;4.20;1.50;;;;;;;11.83;51.22;98813.63;105772;1251;60442;-64
2024/04/03 00:40:09;;;;;;;4.30;1.60;;;;;;;11.82;51.31;98820.13;105791;1256;65301;-67
2024/04/03 00:42:36;;;;;;;1.60;0.80;;;;;;;11.80;51.49;98823.77;105624;1253;60485;-70
2024/04/03 00:45:04;;;;;;;2.30;1.20;;;;;;;11.78;51.37;98826.05;105653;1253;63793;-67
2024/04/03 00:47:30;;;;;;;4.90;1.60;;;;;;;11.79;51.54;98823.95;105667;1253;60336;-70
2024/04/03 00:49:57;;;;;;;2.00;0.60;;;;;;;11.80;51.36;98826.68;105850;1253;60489;-68
2024/04/03 00:52:24;;;;;;;7.90;3.10;;;;;;;11.80;51.33;98818.21;105669;1253;65614;-66
2024/04/03 00:54:51;;;;;;;3.40;1.60;;;;;;;11.81;51.44;98823.83;105918;1251;60482;-66
2024/04/03 00:57:18;;;;;;;1.40;0.80;;;;;;;11.80;51.37;98822.66;105653;1253;64086;-65
2024/04/03 00:59:45;;;;;;;2.60;1.50;;;;;;;11.79;51.49;98824.68;105898;1251;60356;-66
2024/04/03 01:02:13;;;;;;;1.30;0.60;;;;;;;11.78;51.56;98826.91;105865;1253;60917;-65
2024/04/03 01:04:41;;;;;;;0.80;0.50;;;;;;;11.77;51.31;98824.71;105690;1252;66306;-68
2024/04/03 01:07:08;;;;;;;1.00;0.50;;;;;;;11.77;51.16;98833.70;105704;1258;61015;-66
2024/04/03 01:09:36;;;;;;;1.70;0.30;;;;;;;11.76;51.27;98828.45;105718;1253;64052;-67
2024/04/03 01:12:03;;;;;;;1.50;0.50;;;;;;;11.76;51.24;98831.83;105634;1251;60437;-68
2024/04/03 01:14:30;;;;;;;0.40;0.30;;;;;;;11.74;51.34;98836.00;105636;1253;60553;-66
2024/04/03 01:16:57;;;;;;;0.90;0.40;;;;;;;11.68;51.40;98839.74;105852;1253;67002;-67
2024/04/03 01:19:24;;;;;;;0.60;0.40;;;;;;;11.64;51.45;98843.58;105831;1254;60556;-66
2024/04/03 01:21:51;;;;;;;0.50;0.40;;;;;;;11.60;51.59;98839.23;105686;1256;64385;-66
2024/04/03 01:24:20;;;;;;;0.50;0.30;;;;;;;11.56;51.75;98847.77;105727;1256;60464;-66
2024/04/03 01:26:47;;;;;;;1.70;0.60;;;;;;;11.51;51.90;98849.41;105693;1253;60489;-68
2024/04/03 01:29:15;;;;;;;2.30;0.40;;;;;;;11.49;52.16;98854.39;105627;1259;67146;-67
2024/04/03 01:31:42;;;;;;;0.60;0.30;;;;;;;11.50;52.14;98860.09;105772;1253;60457;-68
2024/04/03 01:34:09;;;;;;;0.30;0.30;;;;;;;11.51;52.16;98872.27;105385;1253;64118;-67
2024/04/03 01:36:36;;;;;;;0.40;0.40;;;;;;;11.53;52.20;98867.34;105843;1251;60468;-67
2024/04/03 01:39:03;;;;;;;0.60;0.40;;;;;;;11.57;52.30;98871.90;105781;1256;60455;-67
2024/04/03 01:41:30;;;;;;;1.20;0.40;;;;;;;11.61;52.31;98873.70;105925;1256;65142;-67
2024/04/03 01:43:57;;;;;;;1.30;0.50;;;;;;;11.64;52.24;98874.75;105688;1253;60350;-67
2024/04/03 01:46:24;;;;;;;0.70;0.60;;;;;;;11.65;52.29;98875.02;105783;1256;63980;-67
2024/04/03 01:48:52;;;;;;;1.70;0.40;;;;;;;11.64;52.26;98874.82;105720;1253;60932;-68
2024/04/03 01:51:19;;;;;;;0.70;0.40;;;;;;;11.63;52.40;98870.95;105870;1252;60427;-67
2024/04/03 01:53:46;;;;;;;0.30;0.30;;;;;;;11.64;52.46;98874.19;105777;1254;65184;-69
2024/04/03 01:56:13;;;;;;;0.40;0.40;;;;;;;11.66;52.46;98877.71;105888;1253;60504;-66
2024/04/03 01:58:42;;;;;;;1.20;0.40;;;;;;;11.67;52.42;98877.92;105829;1253;64398;-66
2024/04/03 02:01:09;;;;;;;1.10;0.50;;;;;;;11.69;52.40;98881.77;105689;1251;60417;-69
2024/04/03 02:03:37;;;;;;;1.10;0.60;;;;;;;11.71;52.49;98885.70;105737;1252;60457;-66
2024/04/03 02:06:04;;;;;;;0.60;0.40;;;;;;;11.71;52.43;98891.69;105445;1259;66492;-66
2024/04/03 02:08:31;;;;;;;0.60;0.50;;;;;;;11.71;52.39;98903.45;105467;1253;60590;-67
2024/04/03 02:10:58;;;;;;;2.10;0.40;;;;;;;11.70;52.41;98902.73;105784;1256;64031;-67
2024/04/03 02:13:27;;;;;;;1.50;0.40;;;;;;;11.70;52.38;98904.85;105789;1253;61341;-67
2024/04/03 02:15:54;;;;;;;1.30;0.60;;;;;;;11.71;52.42;98912.29;105450;1253;61349;-66
2024/04/03 02:18:22;;;;;;;0.70;0.50;;;;;;;11.72;52.50;98914.54;105551;1256;66003;-66
2024/04/03 02:20:49;;;;;;;1.10;0.50;;;;;;;11.71;52.43;98919.16;105543;1253;61350;-66
2024/04/03 02:23:16;;;;;;;0.70;0.40;;;;;;;11.71;52.44;98927.23;105776;1256;63907;-65
2024/04/03 02:25:52;;;;;;;2.80;0.50;;;;;;;11.71;52.36;98929.54;105789;1256;61264;-65
2024/04/03 02:28:18;;;;;;;0.60;0.50;;;;;;;11.71;52.35;98923.52;105771;1253;61320;-66
2024/04/03 02:30:45;;;;;;;0.40;0.30;;;;;;;11.72;52.30;98920.98;105937;1256;66045;-66
2024/04/03 02:33:12;;;;;;;0.80;0.60;;;;;;;11.73;52.36;98923.16;106080;1251;61394;-64
2024/04/03 02:35:40;;;;;;;1.90;0.60;;;;;;;11.73;52.38;98924.78;105664;1257;64004;-64
2024/04/03 02:38:08;;;;;;;1.50;0.70;;;;;;;11.72;52.43;98925.90;105600;1253;61360;-65
2024/04/03 02:40:35;;;;;;;1.10;0.50;;;;;;;11.73;52.41;98927.46;105504;1252;61231;-65
2024/04/03 02:43:02;;;;;;;4.10;0.60;;;;;;;11.73;52.49;98928.58;105790;1255;65997;-67
2024/04/03 02:45:29;;;;;;;1.10;0.70;;;;;;;11.74;52.55;98930.30;105507;1259;61263;-66
2024/04/03 02:47:57;;;;;;;0.90;0.50;;;;;;;11.74;52.63;98931.55;105804;1252;62415;-68
2024/04/03 02:50:25;;;;;;;1.90;1.00;;;;;;;11.74;52.67;98933.67;105645;1254;61355;-68
2024/04/03 02:52:52;;;;;;;2.40;1.10;;;;;;;11.72;52.76;98931.69;105768;1253;61260;-68
2024/04/03 02:55:19;;;;;;;1.20;0.70;;;;;;;11.71;52.85;98938.77;105855;1255;65900;-67
2024/04/03 02:57:46;;;;;;;2.00;0.60;;;;;;;11.69;52.98;98940.89;105673;1253;61263;-67
2024/04/03 03:00:14;;;;;;;2.80;1.00;;;;;;;11.68;53.17;98940.67;105849;1256;62548;-67
2024/04/03 03:02:41;;;;;;;1.70;0.90;;;;;;;11.67;53.23;98944.25;105947;1253;62673;-67
2024/04/03 03:05:08;;;;;;;2.50;1.10;;;;;;;11.64;53.19;98949.36;105720;1254;61267;-65
2024/04/03 03:07:35;;;;;;;1.00;0.60;;;;;;;11.60;53.21;98948.02;105629;1257;65956;-66
2024/04/03 03:10:02;;;;;;;4.60;1.80;;;;;;;11.57;53.28;98946.44;105847;1253;61237;-66
2024/04/03 03:12:30;;;;;;;6.20;4.00;;;;;;;11.55;53.32;98949.15;105641;1257;62752;-67
2024/04/03 03:14:56;;;;;;;5.40;3.00;;;;;;;11.51;53.36;98952.66;105793;1251;61446;-65
2024/04/03 03:17:23;;;;;;;2.90;1.60;;;;;;;11.50;53.41;98955.50;105836;1253;62919;-66
2024/04/03 03:19:51;;;;;;;2.90;1.00;;;;;;;11.46;53.46;98962.58;105740;1256;66026;-68
2024/04/03 03:22:18;;;;;;;1.70;0.90;;;;;;;11.42;53.49;98975.14;105778;1254;61342;-68
2024/04/03 03:24:46;;;;;;;2.20;1.40;;;;;;;11.40;53.61;98971.61;105722;1254;62918;-66
2024/04/03 03:27:13;;;;;;;7.30;4.10;;;;;;;11.40;53.64;98969.02;105857;1253;61262;-66
2024/04/03 03:29:40;;;;;;;7.10;4.70;;;;;;;11.40;53.73;98976.89;105665;1254;61324;-67
2024/04/03 03:32:07;;;;;;;2.90;1.90;;;;;;;11.40;53.75;98976.79;105586;1251;65978;-68
2024/04/03 03:34:34;;;;;;;2.00;1.30;;;;;;;11.38;53.85;98975.72;105804;1256;68415;-69
2024/04/03 03:37:01;;;;;;;1.50;1.00;;;;;;;11.36;53.99;98985.27;105768;1255;63835;-67
2024/04/03 03:39:28;;;;;;;2.00;0.80;;;;;;;11.36;54.06;98987.24;105787;1253;61238;-67
2024/04/03 03:41:55;;;;;;;1.30;0.80;;;;;;;11.37;54.18;98984.34;105802;1253;61345;-67
2024/04/03 03:44:21;;;;;;;1.80;1.00;;;;;;;11.39;54.12;98986.43;105753;1256;65996;-69
2024/04/03 03:46:50;;;;;;;2.10;1.00;;;;;;;11.41;54.15;98985.36;105698;1256;61155;-69
2024/04/03 03:54:52;;;;;;;2.40;1.10;;;;;;;11.43;54.27;98996.72;105557;1253;61238;-68
2024/04/03 03:57:19;;;;;;;3.30;1.20;;;;;;;11.45;54.28;98990.84;105677;1252;66023;-67
2024/04/03 03:59:46;;;;;;;2.40;1.10;;;;;;;11.47;54.29;98994.70;105639;1254;61274;-68
2024/04/03 04:02:13;;;;;;;1.60;1.10;;;;;;;11.46;54.32;99001.68;105767;1256;64027;-68
2024/04/03 04:04:40;;;;;;;3.10;1.40;;;;;;;11.43;54.40;99004.61;105843;1254;61247;-68
2024/04/03 04:07:07;;;;;;;2.00;1.50;;;;;;;11.40;54.53;99009.38;105692;1253;61288;-69
2024/04/03 04:09:34;;;;;;;2.00;1.50;;;;;;;11.40;54.79;99012.55;105701;1260;65815;-69
2024/04/03 04:12:01;;;;;;;2.00;1.20;;;;;;;11.40;54.85;99017.08;106055;1253;61365;-69
2024/04/03 04:14:28;;;;;;;3.20;1.70;;;;;;;11.43;54.87;99024.78;105899;1259;63809;-68
2024/04/03 04:16:55;;;;;;;2.10;1.20;;;;;;;11.45;54.95;99030.90;105815;1251;61275;-65
2024/04/03 04:19:21;;;;;;;2.50;1.50;;;;;;;11.48;55.01;99037.25;105737;1256;61371;-68
2024/04/03 04:21:48;;;;;;;2.70;1.70;;;;;;;11.50;55.00;99039.52;105984;1253;66102;-68
2024/04/03 04:24:20;;;;;;;1.90;1.40;;;;;;;11.52;55.03;99039.19;105803;1254;61428;-68
2024/04/03 04:26:48;;;;;;;3.10;1.60;;;;;;;11.54;55.04;99037.31;105737;1259;63132;-71
2024/04/03 04:29:15;;;;;;;3.00;1.60;;;;;;;11.55;55.02;99035.81;105776;1254;61325;-70
2024/04/03 04:31:41;;;;;;;3.40;1.80;;;;;;;11.57;55.06;99041.20;106044;1254;61362;-69
2024/04/03 04:34:08;;;;;;;4.00;1.30;;;;;;;11.58;55.14;99040.08;105550;1259;66608;-69
2024/04/03 04:36:35;;;;;;;2.10;1.40;;;;;;;11.59;55.17;99042.52;105552;1253;61372;-68
2024/04/03 04:39:03;;;;;;;1.80;1.20;;;;;;;11.59;55.18;99043.67;105659;1254;64019;-69
2024/04/03 04:41:30;;;;;;;2.30;1.50;;;;;;;11.60;55.26;99045.04;105911;1253;61250;-69
2024/04/03 04:43:57;;;;;;;2.40;1.50;;;;;;;11.60;55.26;99039.84;105534;1260;61248;-69
2024/04/03 04:46:23;;;;;;;3.00;1.50;;;;;;;11.63;55.40;99049.14;106035;1256;64862;-74
2024/04/03 04:48:50;;;;;;;2.40;1.50;;;;;;;11.64;55.38;99052.34;105953;1258;61275;-68
2024/04/03 04:51:20;;;;;;;2.30;1.40;;;;;;;11.65;55.31;99053.30;106840;1256;63895;-68
2024/04/03 04:53:46;;;;;;;3.40;1.60;;;;;;;11.66;55.47;99055.79;106076;1253;61269;-69
2024/04/03 04:56:13;;;;;;;3.40;1.80;;;;;;;11.70;55.53;99059.77;105780;1254;61579;-67
2024/04/03 04:58:40;;;;;;;5.10;2.00;;;;;;;11.75;55.47;99058.05;105617;1258;65882;-67
2024/04/03 05:01:07;;;;;;;4.70;2.20;;;;;;;11.79;55.45;99054.61;106164;1251;61353;-67
2024/04/03 05:03:35;;;;;;;3.30;1.70;;;;;;;11.85;55.30;99061.95;106063;1254;63898;-65
2024/04/03 05:06:03;;;;;;;3.20;1.50;;;;;;;11.89;55.14;99062.77;106201;1254;61343;-66
2024/04/03 05:08:31;;;;;;;2.80;1.60;;;;;;;11.92;55.12;99063.13;105661;1256;61243;-66
2024/04/03 05:10:58;;;;;;;5.40;1.80;;;;;;;11.96;55.10;99066.80;105796;1257;66211;-66
2024/04/03 05:13:29;;;;;;;4.10;1.50;;;;;;;11.99;55.02;99067.48;105971;1251;61346;-66
2024/04/03 05:15:56;;;;;;;2.80;1.50;;;;;;;12.04;54.90;99061.55;105465;1259;64105;-67
2024/04/03 05:18:23;;;;;;;4.40;1.70;;;;;;;12.08;54.94;99061.67;105975;1251;61170;-66
2024/04/03 05:20:50;;;;;;;8.50;2.00;;;;;;;12.12;54.93;99072.83;105703;1254;62693;-66
2024/04/03 05:23:16;;;;;;;3.50;1.80;;;;;;;12.18;54.66;99084.61;105828;1252;66054;-66
2024/04/03 05:25:43;;;;;;;2.80;1.60;;;;;;;12.21;54.63;99075.55;105734;1256;61455;-65
2024/04/03 05:28:10;;;;;;;2.40;1.40;;;;;;;12.23;54.50;99072.40;105637;1254;63872;-66
2024/04/03 05:30:37;;;;;;;2.10;1.50;;;;;;;12.24;54.62;99080.54;105994;1256;61211;-71
2024/04/03 05:33:05;;;;;;;2.50;1.40;;;;;;;12.27;54.70;99075.30;105701;1253;61339;-70
2024/04/03 05:35:32;;;;;;;5.30;1.50;;;;;;;12.31;54.56;99081.25;105720;1260;69459;-67
2024/04/03 05:38:01;;;;;;;2.30;1.30;;;;;;;12.34;54.48;99083.89;105579;1257;61324;-66
2024/04/03 05:40:29;;;;;;;3.80;1.70;;;;;;;12.37;54.49;99088.91;105869;1257;67776;-66
2024/04/03 05:42:56;;;;;;;3.90;1.50;;;;;;;12.40;54.21;99088.04;105847;1252;61352;-68
2024/04/03 05:45:23;;;;;;;3.70;1.40;;;;;;;12.42;54.10;99083.04;105633;1257;61415;-66
2024/04/03 05:47:50;;;;;;;3.10;1.50;;;;;;;12.46;54.18;99091.59;105803;1256;66019;-66
2024/04/03 05:50:17;;;;;;;2.50;1.70;;;;;;;12.52;54.18;99091.50;105850;1254;61256;-68
2024/04/03 05:52:44;;;;;;;2.40;1.30;;;;;;;12.59;53.88;99094.73;105872;1251;65995;-65
2024/04/03 05:55:13;;;;;;;3.80;1.40;;;;;;;12.63;53.58;99094.91;105828;1254;61237;-66
2024/04/03 05:57:40;;;;;;;3.30;1.60;;;;;;;12.68;53.79;99086.62;105785;1257;61364;-67
2024/04/03 06:00:08;;;;;;;6.30;1.60;;;;;;;12.76;53.55;99091.02;105709;1254;66148;-67
2024/04/03 06:02:39;;;;;;;2.40;1.30;;;;;;;12.86;52.84;99095.39;105905;1251;61988;-66
2024/04/03 06:05:07;;;;;;;3.00;1.20;;;;;;;12.87;52.72;99102.86;105672;1254;65705;-67
2024/04/03 06:07:34;;;;;;;2.50;1.10;;;;;;;12.87;52.61;99102.99;105668;1252;61161;-66
2024/04/03 06:10:03;;;;;;;5.30;1.30;;;;;;;12.90;52.58;99105.05;105788;1256;61432;-66
2024/04/03 06:12:31;;;;;;;4.50;1.70;;;;;;;12.97;52.46;99099.67;105696;1257;68127;-66
2024/04/03 06:14:58;;;;;;;2.30;1.20;;;;;;;13.06;52.40;99100.61;105775;1254;61354;-66
2024/04/03 06:17:25;;;;;;;3.10;1.50;;;;;;;13.12;52.20;99101.38;105740;1253;65772;-67
2024/04/03 06:19:52;;;;;;;2.10;1.10;;;;;;;13.19;52.03;99108.42;105786;1254;61282;-66
2024/04/03 06:22:19;;;;;;;4.10;1.50;;;;;;;13.23;52.01;99104.06;105991;1251;61292;-66
2024/04/03 06:24:46;;;;;;;2.40;1.20;;;;;;;13.29;51.90;99101.29;105898;1256;67765;-66
2024/04/03 06:27:13;;;;;;;4.10;1.30;;;;;;;13.37;51.93;99100.04;105560;1257;61358;-66
2024/04/03 06:29:40;;;;;;;5.30;1.50;;;;;;;13.48;51.63;99104.14;105835;1256;65965;-67
2024/04/03 06:32:07;;;;;;;3.70;1.40;;;;;;;13.55;50.92;99109.00;105629;1260;61384;-68
2024/04/03 06:34:34;;;;;;;3.30;1.20;;;;;;;13.57;50.76;99117.94;105849;1257;61320;-67
2024/04/03 06:37:01;;;;;;;2.00;1.10;;;;;;;13.58;50.80;99114.25;105729;1256;67954;-66
2024/04/03 06:39:29;;;;;;;6.50;1.20;;;;;;;13.64;50.87;99112.91;105825;1257;61361;-69
2024/04/03 06:41:56;;;;;;;5.70;1.20;;;;;;;13.70;50.30;99116.97;105767;1256;65719;-67
2024/04/03 06:44:23;;;;;;;2.50;1.20;;;;;;;13.73;49.96;99123.73;105761;1254;61307;-67
2024/04/03 06:46:50;;;;;;;2.10;1.00;;;;;;;13.74;49.91;99134.55;105832;1257;61345;-66
2024/04/03 06:49:16;;;;;;;1.40;0.90;;;;;;;13.74;49.49;99129.13;105761;1260;67575;-66
2024/04/03 06:51:43;;;;;;;2.60;1.10;;;;;;;13.76;49.76;99120.01;105629;1258;61341;-67
2024/04/03 06:54:10;;;;;;;2.60;1.00;;;;;;;13.81;49.96;99120.73;105704;1257;65802;-70
2024/04/03 06:56:37;;;;;;;1.60;1.00;;;;;;;13.90;49.99;99121.41;105639;1256;61163;-67
2024/04/03 06:59:04;;;;;;;5.60;1.20;;;;;;;14.00;49.84;99124.71;105832;1257;61360;-67
2024/04/03 07:01:31;;;;;;;2.80;1.20;;;;;;;14.13;49.52;99124.67;105824;1254;66809;-67
2024/04/03 07:03:58;;;;;;;1.60;1.00;;;;;;;14.23;48.70;99131.61;105894;1254;61343;-67
2024/04/03 07:06:24;;;;;;;3.40;1.00;;;;;;;14.29;48.43;99137.13;105935;1256;64613;-67
2024/04/03 07:08:52;;;;;;;2.80;0.90;;;;;;;14.32;48.46;99139.99;105806;1257;61570;-67
2024/04/03 07:11:19;;;;;;;3.20;0.90;;;;;;;14.39;48.43;99131.48;105756;1256;61282;-67
2024/04/03 07:13:46;;;;;;;2.10;1.00;;;;;;;14.48;48.32;99132.05;105962;1256;68000;-67
2024/04/03 07:16:13;;;;;;;2.00;0.90;;;;;;;14.52;48.11;99132.05;105844;1257;61219;-68
2024/04/03 07:18:40;;;;;;;3.70;1.00;;;;;;;14.57;47.95;99143.55;105697;1258;65383;-67
2024/04/03 07:21:07;;;;;;;7.10;1.00;;;;;;;14.65;47.88;99142.80;105990;1251;63350;-66
2024/04/03 07:23:35;;;;;;;2.80;1.40;;;;;;;14.73;47.23;99143.58;105777;1257;61916;-69
2024/04/03 07:26:02;;;;;;;3.10;1.20;;;;;;;14.81;46.88;99145.55;105812;1261;67587;-66
2024/04/03 07:28:29;;;;;;;5.80;1.20;;;;;;;14.83;46.68;99151.34;105823;1257;61322;-68
2024/04/03 07:30:59;;;;;;;1.70;0.80;;;;;;;14.83;46.79;99146.76;105702;1256;66028;-67
2024/04/03 07:33:26;;;;;;;2.80;1.10;;;;;;;14.85;46.61;99142.73;105774;1266;61366;-68
2024/04/03 07:35:53;;;;;;;2.20;1.00;;;;;;;14.91;46.81;99140.65;105964;1256;61313;-68
2024/04/03 07:38:20;;;;;;;2.10;0.90;;;;;;;14.95;46.33;99144.38;105861;1251;68032;-69
2024/04/03 07:40:50;;;;;;;4.30;1.00;;;;;;;14.98;46.15;99144.48;105964;1258;61178;-67
2024/04/03 07:43:18;;;;;;;2.00;0.90;;;;;;;15.04;45.86;99148.84;105706;1257;65988;-67
2024/04/03 07:45:44;;;;;;;3.70;1.10;;;;;;;15.11;45.19;99155.45;105815;1259;61250;-67
2024/04/03 07:48:11;;;;;;;2.80;1.00;;;;;;;15.17;44.66;99153.34;105621;1254;61251;-68
2024/04/03 07:50:40;;;;;;;3.10;0.90;;;;;;;15.24;44.83;99145.32;105763;1255;67843;-67
2024/04/03 07:53:07;;;;;;;3.30;0.90;;;;;;;15.29;44.85;99151.92;105824;1260;61218;-67
2024/04/03 07:55:39;;;;;;;2.70;1.40;;;;;;;15.34;44.95;99148.45;105650;1260;65734;-67
2024/04/03 07:58:06;;;;;;;5.10;1.20;;;;;;;15.41;44.49;99152.30;105814;1253;61358;-68
2024/04/03 08:00:33;;;;;;;4.50;0.90;;;;;;;15.44;43.77;99168.89;105689;1258;61254;-67
2024/04/03 08:03:02;;;;;;;3.00;0.90;;;;;;;15.47;43.56;99157.03;105782;1256;67606;-67
2024/04/03 08:05:31;;;;;;;2.20;0.80;;;;;;;15.48;43.48;99154.29;105933;1252;61342;-68
2024/04/03 08:07:58;;;;;;;3.00;1.10;;;;;;;15.53;43.80;99155.87;105696;1255;63423;-67
2024/04/03 08:10:25;;;;;;;4.30;1.10;;;;;;;15.65;43.90;99164.87;105932;1255;61346;-68
2024/04/03 08:12:53;;;;;;;1.90;0.90;;;;;;;15.80;42.98;99174.58;105619;1252;61478;-68
2024/04/03 08:15:20;;;;;;;1.40;0.80;;;;;;;15.85;42.60;99160.08;105823;1261;67690;-66
2024/04/03 08:17:47;;;;;;;1.10;0.70;;;;;;;15.87;42.48;99166.45;105726;1256;69249;-67
2024/04/03 08:20:14;;;;;;;2.80;0.80;;;;;;;15.92;42.37;99164.79;105526;1257;65486;-67
2024/04/03 08:22:41;;;;;;;2.10;0.90;;;;;;;15.99;42.02;99163.55;105616;1257;61267;-66
2024/04/03 08:25:10;;;;;;;4.40;1.20;;;;;;;16.03;41.93;99165.39;105919;1255;61960;-67
2024/04/03 08:27:38;;;;;;;2.50;0.80;;;;;;;16.05;42.11;99159.63;105934;1252;67871;-66
2024/04/03 08:30:06;;;;;;;1.10;0.80;;;;;;;16.12;41.63;99168.64;105788;1252;61311;-66
2024/04/03 08:32:35;;;;;;;3.80;0.90;;;;;;;16.15;41.27;99166.39;105683;1251;63445;-67
2024/04/03 08:35:03;;;;;;;6.20;0.80;;;;;;;16.19;41.12;99171.30;105675;1257;61134;-68
2024/04/03 08:37:31;;;;;;;4.60;1.00;;;;;;;16.22;40.99;99169.63;105805;1251;61365;-70
2024/04/03 08:40:02;;;;;;;3.90;1.10;;;;;;;16.28;40.97;99182.20;105624;1254;65758;-65
2024/04/03 08:42:30;;;;;;;2.40;0.90;;;;;;;16.37;40.82;99183.27;105842;1257;61423;-66
2024/04/03 08:44:57;;;;;;;2.40;1.10;;;;;;;16.44;40.83;99177.58;105569;1251;65646;-66
2024/04/03 08:47:24;;;;;;;4.40;0.80;;;;;;;16.51;40.37;99180.61;105611;1254;61173;-66
2024/04/03 08:49:52;;;;;;;3.40;0.80;;;;;;;16.53;39.98;99175.92;105622;1259;61202;-67
2024/04/03 08:52:18;;;;;;;2.40;0.70;;;;;;;16.52;39.91;99163.80;105589;1257;67821;-71
2024/04/03 08:54:45;;;;;;;1.20;0.60;;;;;;;16.57;40.05;99159.30;105584;1254;61182;-68
2024/04/03 08:57:12;;;;;;;2.00;0.80;;;;;;;16.66;40.05;99166.33;105773;1254;64953;-67
2024/04/03 08:59:40;;;;;;;2.20;0.80;;;;;;;16.73;39.90;99170.80;105778;1257;61267;-66
2024/04/03 09:02:07;;;;;;;4.60;0.60;;;;;;;16.74;39.03;99157.20;105770;1257;61237;-67
2024/04/03 09:04:34;;;;;;;1.60;0.70;;;;;;;16.73;39.05;99162.15;105906;1257;69312;-68
2024/04/03 09:07:02;;;;;;;3.00;0.70;;;;;;;16.80;39.38;99159.92;105518;1259;61369;-68
2024/04/03 09:09:31;;;;;;;3.10;0.70;;;;;;;16.99;39.63;99162.17;105950;1257;65917;-66
2024/04/03 09:12:02;;;;;;;8.40;0.90;;;;;;;17.19;38.87;99174.31;105665;1254;61248;-67
2024/04/03 09:14:30;;;;;;;2.80;0.80;;;;;;;17.28;37.88;99175.54;105913;1251;61257;-67
2024/04/03 09:17:00;;;;;;;1.60;0.50;;;;;;;17.24;37.51;99180.68;106014;1254;65604;-67
2024/04/03 09:19:30;;;;;;;1.10;0.80;;;;;;;17.16;37.56;99181.40;105898;1251;61781;-67
2024/04/03 09:21:58;;;;;;;2.90;0.70;;;;;;;17.19;37.68;99182.16;105673;1251;65942;-65
2024/04/03 09:24:25;;;;;;;2.80;0.70;;;;;;;17.21;37.31;99183.29;105772;1264;61177;-65
2024/04/03 09:26:56;;;;;;;1.80;0.70;;;;;;;17.16;37.49;99184.97;105658;1260;61254;-67
2024/04/03 09:29:24;;;;;;;9.30;0.90;;;;;;;17.16;37.85;99183.86;105903;1256;67886;-66
2024/04/03 09:31:51;;;;;;;3.20;0.70;;;;;;;17.30;38.03;99183.64;105660;1254;61343;-67
2024/04/03 09:34:18;;;;;;;5.00;0.80;;;;;;;17.45;37.22;99190.58;105670;1256;65544;-67
2024/04/03 09:36:45;;;;;;;5.90;1.00;;;;;;;17.56;37.14;99194.88;105560;1254;61634;-67
2024/04/03 09:39:12;;;;;;;1.50;0.60;;;;;;;17.68;37.25;99181.38;105817;1256;61249;-67
2024/04/03 09:41:40;;;;;;;3.40;0.70;;;;;;;17.76;36.80;99184.64;105472;1260;67675;-66
2024/04/03 09:44:08;;;;;;;5.20;0.70;;;;;;;17.78;36.83;99181.03;105560;1257;61288;-68
2024/04/03 09:47:11;;;;;;;4.30;0.70;;;;;;;17.85;36.48;99177.24;105632;1257;64587;-66
2024/04/03 09:49:41;;;;;;;2.10;0.90;;;;;;;17.97;36.19;99182.23;105754;1251;61352;-66
2024/04/03 09:52:08;;;;;;;3.70;0.80;;;;;;;18.02;35.40;99179.08;105852;1254;61237;-67
2024/04/03 09:54:36;;;;;;;4.50;0.80;;;;;;;17.93;35.54;99191.34;105765;1258;74908;-66
2024/04/03 09:57:03;;;;;;;2.30;0.80;;;;;;;17.79;35.64;99201.95;105631;1254;61363;-66
2024/04/03 09:59:30;;;;;;;2.70;0.60;;;;;;;17.57;36.01;99211.64;105772;1254;65812;-67
2024/04/03 10:01:57;;;;;;;3.90;0.80;;;;;;;17.45;36.52;99201.61;105823;1251;61296;-67
2024/04/03 10:04:33;;;;;;;1.90;0.50;;;;;;;17.58;36.70;99199.44;105783;1251;61652;-69
2024/04/03 10:07:02;;;;;;;2.50;0.70;;;;;;;17.85;36.06;99198.52;105523;1260;67755;-66
2024/04/03 10:09:30;;;;;;;7.00;1.00;;;;;;;18.16;35.64;99196.21;105537;1254;61296;-67
2024/04/03 10:11:58;;;;;;;6.50;0.80;;;;;;;18.50;34.83;99210.45;105871;1257;65946;-66
2024/04/03 10:14:32;;;;;;;1.70;0.90;;;;;;;18.67;34.24;99216.96;105800;1257;62088;-71
2024/04/03 10:16:59;;;;;;;2.60;0.70;;;;;;;18.56;33.99;99220.71;105768;1257;61251;-67
2024/04/03 10:19:33;;;;;;;8.50;0.90;;;;;;;18.41;33.66;99218.38;105610;1257;255443;-67
2024/04/03 10:22:02;;;;;;;6.50;1.10;;;;;;;18.33;34.00;99220.52;105591;1261;62948;-67
2024/04/03 10:24:32;;;;;;;1.70;0.70;;;;;;;18.38;33.69;99222.94;105711;1257;64539;-70
2024/04/03 10:26:59;;;;;;;2.90;0.60;;;;;;;18.46;33.39;99234.73;105522;1254;61479;-71
2024/04/03 10:29:26;;;;;;;1.70;0.80;;;;;;;18.41;33.76;99234.10;106042;1255;61209;-67
2024/04/03 10:31:53;;;;;;;2.80;0.70;;;;;;;18.47;34.11;99235.69;106013;1257;67863;-67
2024/04/03 10:34:20;;;;;;;5.30;0.80;;;;;;;18.65;33.64;99232.02;105914;1257;61203;-69
2024/04/03 10:36:47;;;;;;;2.50;0.90;;;;;;;18.76;33.45;99240.55;105705;1252;65670;-68
2024/04/03 10:39:14;;;;;;;1.80;0.60;;;;;;;18.75;33.17;99236.67;106046;1251;61355;-69
2024/04/03 10:41:42;;;;;;;4.10;1.00;;;;;;;18.82;33.58;99236.84;105908;1254;61223;-66
2024/04/03 10:44:15;;;;;;;3.30;0.90;;;;;;;19.05;33.54;99237.95;105808;1254;67679;-68
2024/04/03 10:46:42;;;;;;;3.80;0.60;;;;;;;19.12;32.01;99240.64;105900;1251;61266;-67
2024/04/03 10:49:09;;;;;;;3.90;0.70;;;;;;;18.91;31.49;99239.63;105909;1254;65917;-67
2024/04/03 10:51:36;;;;;;;4.90;0.80;;;;;;;18.75;32.36;99234.77;105800;1257;61333;-67
2024/04/03 10:54:04;;;;;;;4.80;0.60;;;;;;;18.80;32.58;99232.15;106050;1254;61195;-68
2024/04/03 10:56:31;;;;;;;2.10;0.70;;;;;;;18.88;32.27;99236.36;105830;1251;67653;-66
2024/04/03 10:59:01;;;;;;;3.70;0.60;;;;;;;18.91;32.04;99229.70;105660;1252;61188;-69
2024/04/03 11:01:31;;;;;;;6.90;0.70;;;;;;;19.02;32.35;99233.96;105746;1254;65873;-67
2024/04/03 11:04:04;;;;;;;9.20;0.90;;;;;;;19.26;31.50;99242.50;105669;1259;61340;-67
2024/04/03 11:06:31;;;;;;;3.20;0.50;;;;;;;19.49;31.00;99249.23;105658;1254;61254;-66
2024/04/03 11:08:58;;;;;;;4.40;0.60;;;;;;;19.65;31.14;99247.80;105802;1255;67605;-66
2024/04/03 11:11:26;;;;;;;4.10;0.50;;;;;;;19.78;30.68;99242.96;105847;1251;61419;-66
2024/04/03 11:13:54;;;;;;;2.80;1.00;;;;;;;19.76;30.88;99248.48;105540;1255;65647;-68
2024/04/03 11:16:22;;;;;;;3.00;0.60;;;;;;;19.74;31.36;99246.59;105706;1251;61145;-68
2024/04/03 11:18:50;;;;;;;7.90;0.90;;;;;;;19.93;31.22;99251.45;105890;1252;61951;-68
2024/04/03 11:21:17;;;;;;;2.50;0.70;;;;;;;20.13;30.81;99246.21;105947;1257;67597;-68
2024/04/03 11:23:43;;;;;;;6.50;0.80;;;;;;;20.34;30.72;99248.16;105739;1254;61305;-67
2024/04/03 11:26:10;;;;;;;3.00;0.70;;;;;;;20.53;30.41;99247.77;105856;1254;65865;-68
2024/04/03 11:28:39;;;;;;;1.70;0.60;;;;;;;20.79;30.48;99248.42;105754;1254;61395;-68
2024/04/03 11:31:06;;;;;;;3.60;0.70;;;;;;;21.06;29.88;99247.52;105875;1251;61276;-70